sensor_id;sensor_type;location;lat;lon;timestamp;pressure;altitude;pressure_sealevel;temperature;humidity
80712;BME280;70078;51.596;5.678;2023-09-19T00:02:04;100598.28;;;14.71;79.71
80712;BME280;70078;51.596;5.678;2023-09-19T00:04:43;100578.66;;;14.42;79.57
80712;BME280;70078;51.596;5.678;2023-09-19T00:07:17;100566.69;;;14.38;79.99
80712;BME280;70078;51.596;5.678;2023-09-19T00:10:21;100537.13;;;14.04;80.08
80712;BME280;70078;51.596;5.678;2023-09-19T00:12:56;100577.72;;;14.50;79.49
80712;BME280;70078;51.596;5.678;2023-09-19T00:15:48;100551.50;;;14.24;79.29
80712;BME280;70078;51.596;5.678;2023-09-19T00:18:23;100621.22;;;14.67;79.26
80712;BME280;70078;51.596;5.678;2023-09-19T00:21:08;100673.84;;;14.89;79.72
80712;BME280;70078;51.596;5.678;2023-09-19T00:23:35;100645.00;;;14.70;79.75
80712;BME280;70078;51.596;5.678;2023-09-19T00:26:32;100698.75;;;15.05;79.80
80712;BME280;70078;51.596;5.678;2023-09-19T00:28:57;100614.91;;;14.47;80.27
80712;BME280;70078;51.596;5.678;2023-09-19T00:31:24;100634.56;;;14.54;79.72
80712;BME280;70078;51.596;5.678;2023-09-19T00:33:50;100647.44;;;14.65;80.32
80712;BME280;70078;51.596;5.678;2023-09-19T00:36:16;100670.59;;;14.66;80.26
80712;BME280;70078;51.596;5.678;2023-09-19T00:38:43;100677.47;;;14.75;80.21
80712;BME280;70078;51.596;5.678;2023-09-19T00:41:10;100688.81;;;14.70;80.18
80712;BME280;70078;51.596;5.678;2023-09-19T00:43:38;100654.28;;;14.39;80.19
80712;BME280;70078;51.596;5.678;2023-09-19T00:46:05;100724.47;;;14.86;80.17
80712;BME280;70078;51.596;5.678;2023-09-19T00:48:40;100685.91;;;14.72;79.47
80712;BME280;70078;51.596;5.678;2023-09-19T00:51:09;100711.44;;;14.83;80.22
80712;BME280;70078;51.596;5.678;2023-09-19T00:53:46;100642.22;;;14.29;80.10
80712;BME280;70078;51.596;5.678;2023-09-19T00:56:12;100670.63;;;14.44;79.90
80712;BME280;70078;51.596;5.678;2023-09-19T00:58:38;100694.69;;;14.53;80.36
80712;BME280;70078;51.596;5.678;2023-09-19T01:01:05;100693.63;;;14.47;80.35
80712;BME280;70078;51.596;5.678;2023-09-19T01:03:33;100671.16;;;14.33;79.82
80712;BME280;70078;51.596;5.678;2023-09-19T01:05:59;100702.75;;;14.53;79.86
80712;BME280;70078;51.596;5.678;2023-09-19T01:08:27;100714.31;;;14.53;79.94
80712;BME280;70078;51.596;5.678;2023-09-19T01:11:16;100720.00;;;14.43;79.93
80712;BME280;70078;51.596;5.678;2023-09-19T01:13:58;100744.63;;;14.68;79.97
80712;BME280;70078;51.596;5.678;2023-09-19T01:22:22;100752.97;;;14.52;79.97
80712;BME280;70078;51.596;5.678;2023-09-19T01:30:33;100772.41;;;14.54;79.03
80712;BME280;70078;51.596;5.678;2023-09-19T01:33:01;100686.81;;;14.02;79.37
80712;BME280;70078;51.596;5.678;2023-09-19T01:35:27;100715.16;;;14.11;79.34
80712;BME280;70078;51.596;5.678;2023-09-19T01:37:52;100713.50;;;14.10;78.75
80712;BME280;70078;51.596;5.678;2023-09-19T01:40:20;100716.59;;;14.07;78.95
80712;BME280;70078;51.596;5.678;2023-09-19T01:43:06;100752.25;;;14.22;78.51
80712;BME280;70078;51.596;5.678;2023-09-19T01:45:48;100757.84;;;14.27;78.67
80712;BME280;70078;51.596;5.678;2023-09-19T01:51:39;100751.59;;;14.20;77.94
80712;BME280;70078;51.596;5.678;2023-09-19T01:54:13;100785.59;;;14.34;77.57
80712;BME280;70078;51.596;5.678;2023-09-19T01:57:16;100768.25;;;14.30;76.85
80712;BME280;70078;51.596;5.678;2023-09-19T01:59:48;100739.09;;;14.06;77.50
80712;BME280;70078;51.596;5.678;2023-09-19T02:12:32;100773.16;;;14.27;76.17
80712;BME280;70078;51.596;5.678;2023-09-19T02:15:17;100777.53;;;14.13;76.84
80712;BME280;70078;51.596;5.678;2023-09-19T02:24:43;100716.44;;;13.72;76.75
80712;BME280;70078;51.596;5.678;2023-09-19T02:27:09;100667.06;;;13.45;76.00
80712;BME280;70078;51.596;5.678;2023-09-19T02:30:18;100688.13;;;13.48;76.51
80712;BME280;70078;51.596;5.678;2023-09-19T02:53:44;100722.72;;;13.43;75.28
80712;BME280;70078;51.596;5.678;2023-09-19T02:56:17;100823.09;;;13.85;75.74
80712;BME280;70078;51.596;5.678;2023-09-19T02:59:22;100713.31;;;13.32;75.36
80712;BME280;70078;51.596;5.678;2023-09-19T03:01:50;100777.41;;;13.78;74.44
80712;BME280;70078;51.596;5.678;2023-09-19T03:07:12;100815.25;;;13.83;74.76
80712;BME280;70078;51.596;5.678;2023-09-19T03:09:37;100827.63;;;13.84;74.53
80712;BME280;70078;51.596;5.678;2023-09-19T03:12:13;100747.59;;;13.22;75.19
80712;BME280;70078;51.596;5.678;2023-09-19T03:15:00;100799.09;;;13.62;74.15
80712;BME280;70078;51.596;5.678;2023-09-19T03:17:30;100748.44;;;13.38;74.48
80712;BME280;70078;51.596;5.678;2023-09-19T03:27:18;100806.31;;;13.62;74.85
80712;BME280;70078;51.596;5.678;2023-09-19T03:30:07;100734.25;;;13.14;74.88
80712;BME280;70078;51.596;5.678;2023-09-19T03:32:47;100783.34;;;13.44;74.67
80712;BME280;70078;51.596;5.678;2023-09-19T03:35:29;100693.09;;;12.86;75.07
80712;BME280;70078;51.596;5.678;2023-09-19T03:37:57;100785.78;;;13.39;75.27
80712;BME280;70078;51.596;5.678;2023-09-19T03:40:35;100804.56;;;13.54;74.93
80712;BME280;70078;51.596;5.678;2023-09-19T03:43:08;100785.06;;;13.30;75.05
80712;BME280;70078;51.596;5.678;2023-09-19T03:45:44;100770.88;;;13.37;74.62
80712;BME280;70078;51.596;5.678;2023-09-19T03:48:13;100820.16;;;13.65;74.55
80712;BME280;70078;51.596;5.678;2023-09-19T03:51:10;100805.56;;;13.53;74.92
80712;BME280;70078;51.596;5.678;2023-09-19T03:53:38;100690.31;;;12.94;74.08
80712;BME280;70078;51.596;5.678;2023-09-19T03:56:15;100782.44;;;13.52;74.43
80712;BME280;70078;51.596;5.678;2023-09-19T03:58:40;100748.16;;;13.32;74.54
80712;BME280;70078;51.596;5.678;2023-09-19T04:03:58;100740.75;;;13.20;74.34
80712;BME280;70078;51.596;5.678;2023-09-19T04:06:44;100665.63;;;12.69;75.04
80712;BME280;70078;51.596;5.678;2023-09-19T04:09:10;100771.91;;;13.36;75.45
80712;BME280;70078;51.596;5.678;2023-09-19T04:11:49;100762.84;;;13.22;75.35
80712;BME280;70078;51.596;5.678;2023-09-19T04:14:17;100718.94;;;13.08;74.93
80712;BME280;70078;51.596;5.678;2023-09-19T04:16:43;100702.03;;;12.93;75.21
80712;BME280;70078;51.596;5.678;2023-09-19T04:19:11;100699.72;;;12.90;75.62
80712;BME280;70078;51.596;5.678;2023-09-19T04:21:36;100754.91;;;13.28;75.74
80712;BME280;70078;51.596;5.678;2023-09-19T04:24:06;100736.03;;;13.22;75.38
80712;BME280;70078;51.596;5.678;2023-09-19T04:26:42;100711.66;;;12.87;75.93
80712;BME280;70078;51.596;5.678;2023-09-19T04:29:35;100753.81;;;13.23;75.29
80712;BME280;70078;51.596;5.678;2023-09-19T04:32:06;100701.94;;;13.01;74.93
80712;BME280;70078;51.596;5.678;2023-09-19T04:34:42;100832.19;;;13.69;75.57
80712;BME280;70078;51.596;5.678;2023-09-19T04:37:23;100712.38;;;12.81;76.21
80712;BME280;70078;51.596;5.678;2023-09-19T04:39:52;100843.03;;;13.61;76.51
80712;BME280;70078;51.596;5.678;2023-09-19T04:42:26;100802.13;;;13.29;76.34
80712;BME280;70078;51.596;5.678;2023-09-19T04:44:58;100783.34;;;13.15;76.68
80712;BME280;70078;51.596;5.678;2023-09-19T04:47:51;100761.34;;;12.90;76.67
80712;BME280;70078;51.596;5.678;2023-09-19T04:50:22;100763.50;;;13.09;76.55
80712;BME280;70078;51.596;5.678;2023-09-19T04:53:05;100763.84;;;13.06;76.48
80712;BME280;70078;51.596;5.678;2023-09-19T04:55:31;100780.03;;;13.13;76.61
80712;BME280;70078;51.596;5.678;2023-09-19T04:58:30;100827.56;;;13.48;76.67
80712;BME280;70078;51.596;5.678;2023-09-19T05:08:15;100759.69;;;13.18;76.28
80712;BME280;70078;51.596;5.678;2023-09-19T05:17:52;100783.56;;;13.43;76.52
80712;BME280;70078;51.596;5.678;2023-09-19T05:20:21;100777.38;;;13.27;76.68
80712;BME280;70078;51.596;5.678;2023-09-19T05:23:06;100789.19;;;13.48;76.36
80712;BME280;70078;51.596;5.678;2023-09-19T05:25:41;100863.66;;;13.75;76.54
80712;BME280;70078;51.596;5.678;2023-09-19T05:28:27;100777.47;;;13.34;76.25
80712;BME280;70078;51.596;5.678;2023-09-19T05:30:55;100791.41;;;13.29;76.74
80712;BME280;70078;51.596;5.678;2023-09-19T05:33:21;100779.69;;;13.30;76.30
80712;BME280;70078;51.596;5.678;2023-09-19T05:35:50;100867.50;;;13.73;77.49
80712;BME280;70078;51.596;5.678;2023-09-19T05:38:18;100780.69;;;13.29;76.83
80712;BME280;70078;51.596;5.678;2023-09-19T05:40:47;100841.50;;;13.73;76.25
80712;BME280;70078;51.596;5.678;2023-09-19T05:43:18;100799.38;;;13.38;76.95
80712;BME280;70078;51.596;5.678;2023-09-19T05:45:53;100814.72;;;13.44;77.17
80712;BME280;70078;51.596;5.678;2023-09-19T05:48:59;100776.63;;;13.33;76.90
80712;BME280;70078;51.596;5.678;2023-09-19T05:51:33;100786.72;;;13.31;76.96
80712;BME280;70078;51.596;5.678;2023-09-19T05:54:01;100791.25;;;13.46;76.74
80712;BME280;70078;51.596;5.678;2023-09-19T05:56:30;100754.66;;;13.23;77.35
80712;BME280;70078;51.596;5.678;2023-09-19T05:58:58;100773.22;;;13.40;76.58
80712;BME280;70078;51.596;5.678;2023-09-19T06:01:36;100860.72;;;14.06;76.67
80712;BME280;70078;51.596;5.678;2023-09-19T06:06:56;100784.66;;;13.48;77.74
80712;BME280;70078;51.596;5.678;2023-09-19T06:09:28;100780.78;;;13.51;77.96
80712;BME280;70078;51.596;5.678;2023-09-19T06:11:56;100772.28;;;13.32;77.79
80712;BME280;70078;51.596;5.678;2023-09-19T06:14:22;100832.34;;;13.82;77.65
80712;BME280;70078;51.596;5.678;2023-09-19T06:16:49;100850.09;;;13.98;77.43
80712;BME280;70078;51.596;5.678;2023-09-19T06:19:15;100808.56;;;13.79;76.90
80712;BME280;70078;51.596;5.678;2023-09-19T06:21:40;100852.66;;;14.06;77.29
80712;BME280;70078;51.596;5.678;2023-09-19T06:24:15;100875.50;;;14.17;77.74
80712;BME280;70078;51.596;5.678;2023-09-19T06:26:41;100876.22;;;14.26;77.70
80712;BME280;70078;51.596;5.678;2023-09-19T06:29:09;100861.88;;;14.19;77.17
80712;BME280;70078;51.596;5.678;2023-09-19T06:31:48;100886.84;;;14.34;77.28
80712;BME280;70078;51.596;5.678;2023-09-19T06:34:16;100842.50;;;14.02;77.64
80712;BME280;70078;51.596;5.678;2023-09-19T06:36:51;100873.72;;;14.24;77.27
80712;BME280;70078;51.596;5.678;2023-09-19T06:39:19;100923.41;;;14.50;77.87
80712;BME280;70078;51.596;5.678;2023-09-19T06:45:06;100904.78;;;14.48;77.43
80712;BME280;70078;51.596;5.678;2023-09-19T06:47:35;100851.59;;;14.22;77.06
80712;BME280;70078;51.596;5.678;2023-09-19T06:50:23;100882.84;;;14.44;77.23
80712;BME280;70078;51.596;5.678;2023-09-19T06:52:49;100929.19;;;14.68;77.46
80712;BME280;70078;51.596;5.678;2023-09-19T06:55:41;100849.28;;;14.19;77.09
80712;BME280;70078;51.596;5.678;2023-09-19T06:58:10;100920.31;;;14.67;77.55
80712;BME280;70078;51.596;5.678;2023-09-19T07:00:36;100868.75;;;14.42;77.43
80712;BME280;70078;51.596;5.678;2023-09-19T07:03:06;100931.81;;;14.83;77.62
80712;BME280;70078;51.596;5.678;2023-09-19T07:06:17;100824.75;;;14.22;76.91
80712;BME280;70078;51.596;5.678;2023-09-19T07:12:25;100913.81;;;15.05;76.12
80712;BME280;70078;51.596;5.678;2023-09-19T07:14:53;100902.81;;;14.78;77.13
80712;BME280;70078;51.596;5.678;2023-09-19T07:17:19;100869.31;;;14.74;76.97
80712;BME280;70078;51.596;5.678;2023-09-19T07:19:46;100934.09;;;15.07;76.77
80712;BME280;70078;51.596;5.678;2023-09-19T07:22:13;100926.59;;;15.03;76.63
80712;BME280;70078;51.596;5.678;2023-09-19T07:24:38;100886.97;;;14.83;76.74
80712;BME280;70078;51.596;5.678;2023-09-19T07:27:04;100863.66;;;14.69;76.49
80712;BME280;70078;51.596;5.678;2023-09-19T07:29:30;100926.34;;;15.19;76.52
80712;BME280;70078;51.596;5.678;2023-09-19T07:31:56;100924.09;;;15.22;76.37
80712;BME280;70078;51.596;5.678;2023-09-19T07:34:21;100883.78;;;15.01;76.51
80712;BME280;70078;51.596;5.678;2023-09-19T07:36:48;100885.44;;;15.02;76.13
80712;BME280;70078;51.596;5.678;2023-09-19T07:39:13;100875.78;;;15.08;75.85
80712;BME280;70078;51.596;5.678;2023-09-19T07:41:39;100903.00;;;15.26;75.61
80712;BME280;70078;51.596;5.678;2023-09-19T07:44:04;100884.88;;;15.07;76.19
80712;BME280;70078;51.596;5.678;2023-09-19T07:46:30;100876.41;;;15.10;75.15
80712;BME280;70078;51.596;5.678;2023-09-19T07:48:56;100907.88;;;15.37;76.54
80712;BME280;70078;51.596;5.678;2023-09-19T07:51:22;100914.22;;;15.58;75.38
80712;BME280;70078;51.596;5.678;2023-09-19T07:53:47;100934.03;;;15.78;75.22
80712;BME280;70078;51.596;5.678;2023-09-19T07:56:13;100938.00;;;15.82;75.63
80712;BME280;70078;51.596;5.678;2023-09-19T07:58:40;100878.84;;;15.61;75.56
80712;BME280;70078;51.596;5.678;2023-09-19T08:01:10;100912.09;;;15.81;74.44
80712;BME280;70078;51.596;5.678;2023-09-19T08:03:36;100931.50;;;16.04;73.85
80712;BME280;70078;51.596;5.678;2023-09-19T08:06:06;100918.97;;;15.90;74.37
80712;BME280;70078;51.596;5.678;2023-09-19T08:08:32;100897.66;;;15.89;73.85
80712;BME280;70078;51.596;5.678;2023-09-19T08:10:59;100925.31;;;16.11;73.13
80712;BME280;70078;51.596;5.678;2023-09-19T08:13:25;100942.97;;;16.26;73.44
80712;BME280;70078;51.596;5.678;2023-09-19T08:15:51;100935.94;;;16.32;73.28
80712;BME280;70078;51.596;5.678;2023-09-19T08:18:18;100900.47;;;16.22;72.97
80712;BME280;70078;51.596;5.678;2023-09-19T08:20:49;100925.22;;;16.52;72.68
80712;BME280;70078;51.596;5.678;2023-09-19T08:23:14;100910.09;;;16.51;72.04
80712;BME280;70078;51.596;5.678;2023-09-19T08:25:39;100886.66;;;16.45;72.41
80712;BME280;70078;51.596;5.678;2023-09-19T08:28:05;100878.81;;;16.56;70.89
80712;BME280;70078;51.596;5.678;2023-09-19T08:30:33;100908.53;;;16.83;70.34
80712;BME280;70078;51.596;5.678;2023-09-19T08:33:00;100927.41;;;16.83;70.76
80712;BME280;70078;51.596;5.678;2023-09-19T08:35:29;100939.06;;;17.10;70.97
80712;BME280;70078;51.596;5.678;2023-09-19T08:37:54;100926.59;;;17.29;70.10
80712;BME280;70078;51.596;5.678;2023-09-19T08:40:20;100918.88;;;17.45;69.38
80712;BME280;70078;51.596;5.678;2023-09-19T08:42:56;100925.75;;;17.55;67.78
80712;BME280;70078;51.596;5.678;2023-09-19T08:45:23;100877.38;;;17.46;68.29
80712;BME280;70078;51.596;5.678;2023-09-19T08:50:47;100909.44;;;18.08;67.13
80712;BME280;70078;51.596;5.678;2023-09-19T08:53:20;100925.84;;;18.51;66.88
80712;BME280;70078;51.596;5.678;2023-09-19T08:55:50;100937.56;;;18.38;66.98
80712;BME280;70078;51.596;5.678;2023-09-19T08:58:16;100936.53;;;18.33;65.21
80712;BME280;70078;51.596;5.678;2023-09-19T09:00:48;100925.47;;;18.41;65.61
80712;BME280;70078;51.596;5.678;2023-09-19T09:03:14;100927.38;;;18.78;64.66
80712;BME280;70078;51.596;5.678;2023-09-19T09:05:41;100917.19;;;19.05;64.09
80712;BME280;70078;51.596;5.678;2023-09-19T09:08:09;100944.22;;;19.12;63.35
80712;BME280;70078;51.596;5.678;2023-09-19T09:10:37;100948.28;;;19.21;64.47
80712;BME280;70078;51.596;5.678;2023-09-19T09:13:03;100946.41;;;19.47;63.34
80712;BME280;70078;51.596;5.678;2023-09-19T09:15:30;100937.97;;;19.55;62.38
80712;BME280;70078;51.596;5.678;2023-09-19T09:17:58;100943.59;;;19.35;61.33
80712;BME280;70078;51.596;5.678;2023-09-19T09:20:23;100904.50;;;19.49;62.49
80712;BME280;70078;51.596;5.678;2023-09-19T09:22:55;100917.00;;;19.50;61.83
80712;BME280;70078;51.596;5.678;2023-09-19T09:25:46;100921.72;;;19.61;60.77
80712;BME280;70078;51.596;5.678;2023-09-19T09:28:19;100923.06;;;20.07;59.66
80712;BME280;70078;51.596;5.678;2023-09-19T09:30:46;100916.94;;;20.30;60.08
80712;BME280;70078;51.596;5.678;2023-09-19T09:33:13;100919.50;;;20.25;58.90
80712;BME280;70078;51.596;5.678;2023-09-19T09:35:58;100938.13;;;20.70;59.12
80712;BME280;70078;51.596;5.678;2023-09-19T09:38:29;100913.88;;;20.87;58.97
80712;BME280;70078;51.596;5.678;2023-09-19T09:40:57;100923.13;;;21.21;56.95
80712;BME280;70078;51.596;5.678;2023-09-19T09:51:45;100895.47;;;21.94;54.69
80712;BME280;70078;51.596;5.678;2023-09-19T09:54:24;100918.84;;;22.07;53.24
80712;BME280;70078;51.596;5.678;2023-09-19T09:56:56;100886.19;;;21.67;54.45
80712;BME280;70078;51.596;5.678;2023-09-19T10:02:19;100893.09;;;22.09;53.87
80712;BME280;70078;51.596;5.678;2023-09-19T10:04:50;100882.66;;;22.18;52.49
80712;BME280;70078;51.596;5.678;2023-09-19T10:07:51;100875.34;;;22.47;52.42
80712;BME280;70078;51.596;5.678;2023-09-19T10:13:25;100885.16;;;22.65;50.65
80712;BME280;70078;51.596;5.678;2023-09-19T10:15:53;100898.91;;;22.58;49.59
80712;BME280;70078;51.596;5.678;2023-09-19T10:18:22;100880.34;;;22.10;51.63
80712;BME280;70078;51.596;5.678;2023-09-19T10:20:48;100890.66;;;21.84;52.41
80712;BME280;70078;51.596;5.678;2023-09-19T10:23:17;100880.28;;;21.70;51.69
80712;BME280;70078;51.596;5.678;2023-09-19T10:25:48;100900.34;;;21.92;53.43
80712;BME280;70078;51.596;5.678;2023-09-19T10:28:14;100919.63;;;21.79;52.67
80712;BME280;70078;51.596;5.678;2023-09-19T10:30:44;100888.59;;;22.15;52.86
80712;BME280;70078;51.596;5.678;2023-09-19T10:33:14;100912.06;;;22.61;51.77
80712;BME280;70078;51.596;5.678;2023-09-19T10:35:45;100892.66;;;22.58;52.09
80712;BME280;70078;51.596;5.678;2023-09-19T10:38:12;100879.38;;;22.90;51.26
80712;BME280;70078;51.596;5.678;2023-09-19T10:40:39;100915.22;;;23.54;48.15
80712;BME280;70078;51.596;5.678;2023-09-19T10:43:13;100904.59;;;23.19;48.90
80712;BME280;70078;51.596;5.678;2023-09-19T10:45:44;100887.94;;;23.32;49.28
80712;BME280;70078;51.596;5.678;2023-09-19T10:48:10;100910.53;;;23.66;49.67
80712;BME280;70078;51.596;5.678;2023-09-19T10:53:10;100909.38;;;23.62;48.43
80712;BME280;70078;51.596;5.678;2023-09-19T10:55:37;100896.75;;;23.39;46.52
80712;BME280;70078;51.596;5.678;2023-09-19T10:58:03;100909.28;;;23.40;47.80
80712;BME280;70078;51.596;5.678;2023-09-19T11:00:56;100881.13;;;23.35;47.84
80712;BME280;70078;51.596;5.678;2023-09-19T11:03:28;100892.53;;;23.48;47.22
80712;BME280;70078;51.596;5.678;2023-09-19T11:06:11;100835.13;;;22.83;47.17
80712;BME280;70078;51.596;5.678;2023-09-19T11:09:05;100853.94;;;23.01;48.09
80712;BME280;70078;51.596;5.678;2023-09-19T11:28:37;100805.31;;;22.26;47.73
80712;BME280;70078;51.596;5.678;2023-09-19T11:37:59;100802.78;;;23.03;47.55
80712;BME280;70078;51.596;5.678;2023-09-19T11:47:52;100792.34;;;23.77;45.54
80712;BME280;70078;51.596;5.678;2023-09-19T11:50:44;100729.16;;;23.37;44.72
80712;BME280;70078;51.596;5.678;2023-09-19T12:07:16;100709.09;;;22.65;45.88
80712;BME280;70078;51.596;5.678;2023-09-19T12:09:49;100762.44;;;23.00;45.83
80712;BME280;70078;51.596;5.678;2023-09-19T12:12:27;100830.41;;;23.29;48.35
80712;BME280;70078;51.596;5.678;2023-09-19T12:14:58;100748.19;;;22.93;47.95
80712;BME280;70078;51.596;5.678;2023-09-19T12:17:40;100750.25;;;23.24;47.33
80712;BME280;70078;51.596;5.678;2023-09-19T12:23:29;100715.28;;;23.16;44.21
80712;BME280;70078;51.596;5.678;2023-09-19T12:26:03;100809.25;;;24.01;46.44
80712;BME280;70078;51.596;5.678;2023-09-19T12:38:55;100832.16;;;23.01;46.64
80712;BME280;70078;51.596;5.678;2023-09-19T12:48:36;100830.88;;;21.73;49.37
80712;BME280;70078;51.596;5.678;2023-09-19T12:51:07;100800.38;;;21.30;50.36
80712;BME280;70078;51.596;5.678;2023-09-19T12:57:00;100703.81;;;20.29;52.39
80712;BME280;70078;51.596;5.678;2023-09-19T12:59:32;100718.19;;;20.30;52.67
80712;BME280;70078;51.596;5.678;2023-09-19T13:02:04;100816.06;;;20.93;53.47
80712;BME280;70078;51.596;5.678;2023-09-19T13:04:32;100723.13;;;20.33;53.21
80712;BME280;70078;51.596;5.678;2023-09-19T13:06:59;100790.44;;;20.66;53.71
80712;BME280;70078;51.596;5.678;2023-09-19T13:09:27;100835.19;;;20.98;54.59
80712;BME280;70078;51.596;5.678;2023-09-19T13:12:04;100767.94;;;20.89;53.60
80712;BME280;70078;51.596;5.678;2023-09-19T13:14:30;100779.59;;;21.13;53.91
80712;BME280;70078;51.596;5.678;2023-09-19T13:17:08;100768.16;;;21.34;53.47
80712;BME280;70078;51.596;5.678;2023-09-19T13:19:48;100778.53;;;21.37;52.69
80712;BME280;70078;51.596;5.678;2023-09-19T13:22:44;100827.09;;;21.74;51.80
80712;BME280;70078;51.596;5.678;2023-09-19T13:25:18;100827.84;;;21.57;53.11
80712;BME280;70078;51.596;5.678;2023-09-19T13:27:52;100830.72;;;21.39;52.71
80712;BME280;70078;51.596;5.678;2023-09-19T13:30:20;100784.06;;;20.84;53.45
80712;BME280;70078;51.596;5.678;2023-09-19T13:32:45;100787.59;;;20.49;54.37
80712;BME280;70078;51.596;5.678;2023-09-19T13:35:12;100785.72;;;20.61;53.91
80712;BME280;70078;51.596;5.678;2023-09-19T13:37:39;100839.06;;;20.91;54.69
80712;BME280;70078;51.596;5.678;2023-09-19T13:40:13;100831.66;;;20.86;54.70
80712;BME280;70078;51.596;5.678;2023-09-19T13:42:39;100743.84;;;20.45;53.42
80712;BME280;70078;51.596;5.678;2023-09-19T13:45:08;100806.00;;;20.70;54.18
80712;BME280;70078;51.596;5.678;2023-09-19T13:47:37;100838.72;;;20.87;55.60
80712;BME280;70078;51.596;5.678;2023-09-19T13:50:04;100774.31;;;20.29;54.71
80712;BME280;70078;51.596;5.678;2023-09-19T13:52:30;100839.47;;;20.53;55.49
80712;BME280;70078;51.596;5.678;2023-09-19T13:54:57;100840.28;;;20.53;55.28
80712;BME280;70078;51.596;5.678;2023-09-19T13:57:23;100839.97;;;20.61;56.19
80712;BME280;70078;51.596;5.678;2023-09-19T13:59:49;100804.19;;;20.41;56.84
80712;BME280;70078;51.596;5.678;2023-09-19T14:02:14;100795.00;;;20.54;55.63
80712;BME280;70078;51.596;5.678;2023-09-19T14:04:40;100776.00;;;20.42;55.17
80712;BME280;70078;51.596;5.678;2023-09-19T14:07:06;100786.69;;;20.37;55.07
80712;BME280;70078;51.596;5.678;2023-09-19T14:09:32;100820.03;;;20.67;55.20
80712;BME280;70078;51.596;5.678;2023-09-19T14:12:00;100814.47;;;20.50;55.94
80712;BME280;70078;51.596;5.678;2023-09-19T14:14:25;100838.44;;;20.65;55.59
80712;BME280;70078;51.596;5.678;2023-09-19T14:16:50;100808.91;;;20.45;56.31
80712;BME280;70078;51.596;5.678;2023-09-19T14:19:17;100755.66;;;20.21;55.67
80712;BME280;70078;51.596;5.678;2023-09-19T14:21:43;100811.19;;;20.48;56.40
80712;BME280;70078;51.596;5.678;2023-09-19T14:24:31;100755.66;;;20.21;55.57
80712;BME280;70078;51.596;5.678;2023-09-19T14:26:56;100827.84;;;20.64;56.26
80712;BME280;70078;51.596;5.678;2023-09-19T14:29:22;100774.13;;;20.54;55.61
80712;BME280;70078;51.596;5.678;2023-09-19T14:31:48;100834.47;;;20.91;56.43
80712;BME280;70078;51.596;5.678;2023-09-19T14:34:13;100721.63;;;20.37;56.17
80712;BME280;70078;51.596;5.678;2023-09-19T14:36:40;100784.31;;;20.82;54.03
80712;BME280;70078;51.596;5.678;2023-09-19T14:39:05;100797.19;;;20.87;55.67
80712;BME280;70078;51.596;5.678;2023-09-19T14:41:34;100794.47;;;20.87;55.26
80712;BME280;70078;51.596;5.678;2023-09-19T14:44:03;100827.38;;;20.90;55.81
80712;BME280;70078;51.596;5.678;2023-09-19T14:46:31;100764.25;;;20.48;55.60
80712;BME280;70078;51.596;5.678;2023-09-19T14:48:59;100819.81;;;20.69;55.56
80712;BME280;70078;51.596;5.678;2023-09-19T14:51:28;100785.19;;;20.41;56.75
80712;BME280;70078;51.596;5.678;2023-09-19T14:53:54;100781.03;;;20.38;56.17
80712;BME280;70078;51.596;5.678;2023-09-19T14:56:19;100746.72;;;20.20;56.89
80712;BME280;70078;51.596;5.678;2023-09-19T14:58:45;100805.03;;;20.53;57.91
80712;BME280;70078;51.596;5.678;2023-09-19T15:01:13;100760.16;;;20.27;57.42
80712;BME280;70078;51.596;5.678;2023-09-19T15:03:40;100804.94;;;20.60;57.23
80712;BME280;70078;51.596;5.678;2023-09-19T15:06:08;100770.94;;;20.45;57.26
80712;BME280;70078;51.596;5.678;2023-09-19T15:08:35;100800.44;;;20.54;58.37
80712;BME280;70078;51.596;5.678;2023-09-19T15:11:03;100771.50;;;20.36;57.54
80712;BME280;70078;51.596;5.678;2023-09-19T15:13:31;100731.03;;;20.22;56.67
80712;BME280;70078;51.596;5.678;2023-09-19T15:16:08;100808.56;;;20.54;57.26
80712;BME280;70078;51.596;5.678;2023-09-19T15:18:39;100692.81;;;19.71;58.05
80712;BME280;70078;51.596;5.678;2023-09-19T15:21:08;100768.84;;;20.17;57.93
80712;BME280;70078;51.596;5.678;2023-09-19T15:23:38;100804.34;;;20.58;58.87
80712;BME280;70078;51.596;5.678;2023-09-19T15:26:05;100692.72;;;19.77;57.27
80712;BME280;70078;51.596;5.678;2023-09-19T15:28:31;100793.19;;;20.36;58.05
80712;BME280;70078;51.596;5.678;2023-09-19T15:31:04;100757.75;;;20.07;57.41
80712;BME280;70078;51.596;5.678;2023-09-19T15:33:31;100667.91;;;19.50;57.22
80712;BME280;70078;51.596;5.678;2023-09-19T15:36:15;100651.66;;;19.32;57.24
80712;BME280;70078;51.596;5.678;2023-09-19T15:41:17;100647.56;;;19.11;58.83
80712;BME280;70078;51.596;5.678;2023-09-19T15:43:45;100652.63;;;19.07;59.04
80712;BME280;70078;51.596;5.678;2023-09-19T15:46:10;100803.56;;;19.97;59.73
80712;BME280;70078;51.596;5.678;2023-09-19T15:48:36;100720.13;;;19.57;58.23
80712;BME280;70078;51.596;5.678;2023-09-19T15:51:04;100713.94;;;19.50;58.49
80712;BME280;70078;51.596;5.678;2023-09-19T15:53:47;100781.50;;;19.93;59.21
80712;BME280;70078;51.596;5.678;2023-09-19T15:56:15;100678.53;;;19.15;58.84
80712;BME280;70078;51.596;5.678;2023-09-19T15:58:45;100672.91;;;19.17;58.36
80712;BME280;70078;51.596;5.678;2023-09-19T16:01:11;100679.91;;;19.06;59.54
80712;BME280;70078;51.596;5.678;2023-09-19T16:04:10;100768.97;;;19.62;59.61
80712;BME280;70078;51.596;5.678;2023-09-19T16:06:37;100767.25;;;19.50;59.69
80712;BME280;70078;51.596;5.678;2023-09-19T16:09:04;100736.88;;;19.29;60.16
80712;BME280;70078;51.596;5.678;2023-09-19T16:11:32;100698.97;;;19.11;59.10
80712;BME280;70078;51.596;5.678;2023-09-19T16:14:07;100665.09;;;18.72;59.27
80712;BME280;70078;51.596;5.678;2023-09-19T16:19:33;100721.09;;;19.08;59.81